Time;durP1;ratioP1;P1;durP2;ratioP2;P2;SDS_P1;SDS_P2;PMS_P1;PMS_P2;Temp;Humidity;BMP_temperature;BMP_pressure;BME280_temperature;BME280_humidity;BME280_pressure;Samples;Min_cycle;Max_cycle;Signal;HPM_P1;HPM_P2
2022/11/17 00:01:18;;;;;;;13.40;10.10;;;7.00;37.20;;;;;;5061952;28;20877;-71
2022/11/17 00:03:45;;;;;;;15.90;10.67;;;7.00;37.30;;;;;;5059399;28;20458;-71
2022/11/17 00:06:12;;;;;;;14.13;10.90;;;6.90;37.40;;;;;;5060374;28;20461;-71
2022/11/17 00:08:40;;;;;;;14.50;10.87;;;7.00;37.60;;;;;;5063503;28;20488;-71
2022/11/17 00:11:07;;;;;;;20.13;10.77;;;7.00;37.60;;;;;;5062120;28;20468;-70
2022/11/17 00:16:20;;;;;;;15.83;11.63;;;7.10;37.70;;;;;;5064532;28;20447;-71
2022/11/17 00:21:32;;;;;;;15.30;11.20;;;7.10;37.60;;;;;;5064016;28;20807;-70
2022/11/17 00:24:00;;;;;;;13.47;10.47;;;7.10;37.80;;;;;;5057349;28;20472;-70
2022/11/17 00:26:28;;;;;;;14.20;10.90;;;7.10;37.80;;;;;;5060134;28;20461;-71
2022/11/17 00:28:57;;;;;;;13.40;9.83;;;7.20;37.80;;;;;;5059484;28;20483;-71
2022/11/17 00:34:13;;;;;;;15.70;10.67;;;7.10;38.50;;;;;;5055617;28;20471;-71
2022/11/17 00:36:41;;;;;;;16.83;9.67;;;7.20;38.60;;;;;;5057631;28;20472;-72
2022/11/17 00:39:10;;;;;;;13.70;10.37;;;7.20;38.70;;;;;;5061363;28;21015;-72
2022/11/17 00:41:37;;;;;;;12.43;9.20;;;7.30;38.90;;;;;;5067056;28;20673;-70
2022/11/17 00:44:05;;;;;;;12.60;9.40;;;7.30;38.70;;;;;;5057726;28;20464;-70
2022/11/17 00:46:32;;;;;;;17.57;9.70;;;7.30;38.60;;;;;;5066852;28;20491;-70
2022/11/17 00:48:59;;;;;;;15.40;10.77;;;7.30;38.50;;;;;;5058534;28;20484;-71
2022/11/17 00:51:26;;;;;;;13.47;9.73;;;7.30;38.50;;;;;;5063342;28;20481;-71
2022/11/17 00:53:53;;;;;;;12.03;9.37;;;7.30;38.30;;;;;;5061487;28;20461;-71
2022/11/17 00:56:22;;;;;;;12.07;9.60;;;7.30;38.10;;;;;;5062224;28;20541;-71
2022/11/17 00:58:48;;;;;;;17.13;9.70;;;7.30;38.00;;;;;;5056595;28;20454;-70
2022/11/17 01:01:15;;;;;;;12.97;9.50;;;7.20;38.00;;;;;;5060651;28;20477;-69
2022/11/17 01:03:42;;;;;;;14.70;10.50;;;7.20;38.00;;;;;;5058125;28;20469;-70
2022/11/17 01:06:10;;;;;;;13.73;9.27;;;7.20;38.10;;;;;;5068965;28;20448;-70
2022/11/17 01:08:37;;;;;;;10.97;8.53;;;7.20;38.00;;;;;;5064460;28;20485;-69
2022/11/17 01:11:09;;;;;;;11.80;9.50;;;7.10;38.20;;;;;;5060230;28;20461;-72
2022/11/17 01:13:37;;;;;;;13.40;9.73;;;7.10;38.30;;;;;;5060432;28;20974;-72
2022/11/17 01:16:06;;;;;;;13.17;8.90;;;7.10;38.40;;;;;;5056221;28;20465;-70
2022/11/17 01:18:33;;;;;;;12.17;9.90;;;7.10;38.50;;;;;;5061837;28;20465;-71
2022/11/17 01:21:05;;;;;;;13.50;9.30;;;7.10;38.50;;;;;;5053765;28;21158;-71
2022/11/17 01:23:33;;;;;;;12.63;8.67;;;7.10;38.50;;;;;;5056962;28;20450;-69
2022/11/17 01:26:08;;;;;;;13.53;9.17;;;7.10;38.40;;;;;;5064481;28;20461;-71
2022/11/17 01:28:35;;;;;;;11.97;7.90;;;7.10;38.50;;;;;;5064814;28;20480;-71
2022/11/17 01:31:06;;;;;;;10.93;8.33;;;7.10;38.50;;;;;;5053378;28;20473;-71
2022/11/17 01:33:33;;;;;;;12.07;9.20;;;7.20;38.40;;;;;;5057790;28;20460;-71
2022/11/17 01:36:02;;;;;;;13.60;8.10;;;7.20;38.50;;;;;;5049240;28;20465;-70
2022/11/17 01:38:30;;;;;;;11.90;9.00;;;7.20;38.60;;;;;;5061972;28;20508;-73
2022/11/17 01:40:58;;;;;;;11.80;7.90;;;7.30;38.70;;;;;;5057546;28;20459;-73
2022/11/17 01:43:40;;;;;;;13.47;8.87;;;7.30;38.80;;;;;;5061413;28;20458;-70
2022/11/17 01:46:17;;;;;;;11.60;8.57;;;7.30;39.10;;;;;;5066237;28;20862;-70
2022/11/17 01:48:45;;;;;;;13.77;9.97;;;7.40;39.00;;;;;;5055582;28;20481;-71
2022/11/17 01:51:14;;;;;;;14.20;10.60;;;7.40;39.00;;;;;;5062353;28;20458;-71
2022/11/17 01:53:43;;;;;;;14.03;10.40;;;7.50;39.00;;;;;;5059963;28;20468;-72
2022/11/17 01:56:15;;;;;;;11.67;8.97;;;7.50;39.10;;;;;;5057448;28;20457;-72
2022/11/17 01:58:46;;;;;;;12.90;9.40;;;7.50;39.10;;;;;;5056959;28;20726;-72
2022/11/17 02:01:14;;;;;;;12.47;9.20;;;7.50;39.50;;;;;;5059561;28;20481;-73
2022/11/17 02:03:42;;;;;;;17.57;10.13;;;7.50;39.60;;;;;;5060347;28;20480;-72
2022/11/17 02:06:14;;;;;;;12.60;8.83;;;7.50;39.60;;;;;;5059493;28;20957;-72
2022/11/17 02:08:45;;;;;;;14.57;10.60;;;7.50;39.50;;;;;;5057377;28;20495;-71
2022/11/17 02:11:15;;;;;;;13.80;9.93;;;7.50;39.50;;;;;;5061011;28;20464;-71
2022/11/17 02:13:42;;;;;;;12.00;9.27;;;7.50;39.50;;;;;;5064105;28;20853;-72
2022/11/17 02:16:12;;;;;;;16.10;9.53;;;7.50;39.80;;;;;;5052928;28;20457;-71
2022/11/17 02:18:41;;;;;;;14.43;10.27;;;7.50;39.50;;;;;;5060541;28;20449;-71
2022/11/17 02:21:39;;;;;;;14.17;11.53;;;7.50;39.40;;;;;;5060595;28;20462;-71
2022/11/17 02:24:41;;;;;;;15.60;9.43;;;7.60;39.70;;;;;;5051840;28;20453;-71
2022/11/17 02:27:52;;;;;;;12.50;9.50;;;7.60;39.50;;;;;;5061345;28;20974;-71
2022/11/17 02:30:22;;;;;;;12.87;9.43;;;7.60;39.50;;;;;;5051052;28;20488;-71
2022/11/17 02:33:00;;;;;;;14.53;9.60;;;7.70;39.30;;;;;;5054710;28;20454;-71
2022/11/17 02:35:36;;;;;;;13.20;9.90;;;7.70;39.50;;;;;;5061198;28;20448;-70
2022/11/17 02:38:12;;;;;;;15.40;10.20;;;7.70;39.30;;;;;;5060349;28;20452;-71
2022/11/17 02:40:44;;;;;;;12.33;9.53;;;7.80;39.30;;;;;;5063192;28;20483;-71
2022/11/17 02:46:07;;;;;;;15.17;10.40;;;7.80;39.30;;;;;;5063385;28;21098;-70
2022/11/17 02:48:37;;;;;;;14.23;10.00;;;7.70;39.70;;;;;;5065073;28;20476;-71
2022/11/17 02:51:06;;;;;;;18.40;9.97;;;7.70;39.70;;;;;;5063429;28;20949;-71
2022/11/17 02:53:34;;;;;;;13.47;10.20;;;7.70;39.70;;;;;;5065862;28;20472;-71
2022/11/17 02:56:01;;;;;;;13.87;8.63;;;7.70;39.70;;;;;;5056769;28;20573;-71
2022/11/17 02:58:28;;;;;;;15.30;9.17;;;7.80;39.50;;;;;;5059912;28;20532;-71
2022/11/17 03:01:24;;;;;;;10.83;8.30;;;7.80;39.60;;;;;;5062597;28;20477;-71
2022/11/17 03:04:14;;;;;;;17.17;10.33;;;7.80;39.80;;;;;;5069514;28;20453;-71
2022/11/17 03:06:51;;;;;;;11.70;8.80;;;7.80;39.60;;;;;;5057561;28;20470;-71
2022/11/17 03:09:22;;;;;;;14.97;10.23;;;7.80;39.60;;;;;;5066060;28;20484;-71
2022/11/17 03:11:53;;;;;;;13.63;9.33;;;7.90;39.60;;;;;;5066779;28;20457;-71
2022/11/17 03:14:27;;;;;;;13.30;8.87;;;7.90;39.30;;;;;;5064526;28;20660;-72
2022/11/17 03:17:01;;;;;;;11.10;8.30;;;7.90;39.40;;;;;;5060538;28;20461;-70
2022/11/17 03:19:32;;;;;;;11.40;9.93;;;7.90;39.40;;;;;;5064477;28;20538;-71
2022/11/17 03:22:05;;;;;;;13.00;9.47;;;7.90;40.00;;;;;;5063584;28;20471;-73
2022/11/17 03:24:36;;;;;;;14.27;9.33;;;7.90;39.00;;;;;;5061574;28;20454;-71
2022/11/17 03:27:10;;;;;;;11.47;8.20;;;7.80;39.00;;;;;;5063667;28;20461;-71
2022/11/17 03:29:40;;;;;;;10.63;8.00;;;7.70;39.20;;;;;;5060943;28;20487;-70
2022/11/17 03:32:10;;;;;;;12.27;7.77;;;7.70;39.20;;;;;;5065974;28;21280;-71
2022/11/17 03:34:42;;;;;;;10.73;7.17;;;7.60;39.20;;;;;;5063024;28;20461;-70
2022/11/17 03:37:12;;;;;;;11.90;7.73;;;7.60;39.70;;;;;;5060894;28;20503;-71
2022/11/17 03:39:43;;;;;;;8.70;5.90;;;7.50;39.70;;;;;;5059802;28;20477;-71
2022/11/17 03:42:13;;;;;;;10.47;7.40;;;7.50;39.90;;;;;;5061050;28;20980;-72
2022/11/17 03:44:45;;;;;;;9.50;6.47;;;7.40;40.20;;;;;;5062945;28;20472;-70
2022/11/17 03:47:15;;;;;;;9.60;6.47;;;7.40;40.30;;;;;;5055554;28;20457;-72
2022/11/17 03:49:49;;;;;;;11.10;7.50;;;7.40;40.50;;;;;;5058703;28;20482;-70
2022/11/17 03:52:16;;;;;;;11.20;7.90;;;7.40;40.40;;;;;;5057058;28;20996;-72
2022/11/17 03:54:43;;;;;;;12.80;9.03;;;7.40;40.40;;;;;;5061766;28;20462;-71
2022/11/17 03:57:15;;;;;;;13.53;8.20;;;7.50;40.40;;;;;;5055124;28;20458;-71
2022/11/17 03:59:50;;;;;;;9.77;7.17;;;7.50;40.20;;;;;;5058618;28;20904;-72
2022/11/17 04:02:19;;;;;;;10.50;7.07;;;7.70;40.30;;;;;;5061523;28;20473;-72
2022/11/17 04:07:30;;;;;;;11.20;6.93;;;7.90;39.90;;;;;;5061196;28;20546;-72
2022/11/17 04:09:57;;;;;;;11.07;7.13;;;7.90;39.60;;;;;;5063687;28;20520;-70
2022/11/17 04:17:55;;;;;;;9.50;7.40;;;8.10;39.30;;;;;;5065470;28;20469;-71
2022/11/17 04:20:22;;;;;;;10.00;6.47;;;8.10;39.10;;;;;;5061853;28;20520;-77
2022/11/17 04:23:05;;;;;;;11.10;5.97;;;8.10;39.20;;;;;;5063010;28;20832;-66
2022/11/17 04:31:05;;;;;;;9.67;5.23;;;8.10;39.50;;;;;;5054526;28;21048;-70
2022/11/17 04:33:34;;;;;;;10.27;5.87;;;8.20;39.10;;;;;;5055691;28;21085;-71
2022/11/17 04:36:01;;;;;;;10.10;5.27;;;8.20;38.80;;;;;;5055031;28;20461;-70
2022/11/17 04:38:27;;;;;;;9.30;5.23;;;8.30;38.70;;;;;;5059970;28;20457;-70
2022/11/17 04:43:45;;;;;;;11.90;4.97;;;8.20;38.70;;;;;;5052952;28;20445;-71
2022/11/17 04:46:12;;;;;;;12.80;5.50;;;8.20;38.60;;;;;;5061278;28;20449;-72
2022/11/17 04:48:40;;;;;;;8.40;5.00;;;8.20;38.70;;;;;;5062376;28;20488;-70
2022/11/17 04:51:06;;;;;;;9.23;6.30;;;8.20;39.60;;;;;;5058534;28;20466;-71
2022/11/17 04:53:33;;;;;;;9.90;5.30;;;8.20;39.10;;;;;;5061007;28;20461;-69
2022/11/17 04:56:00;;;;;;;9.47;5.33;;;8.20;39.30;;;;;;5059494;28;20472;-70
2022/11/17 04:58:28;;;;;;;7.50;4.87;;;8.20;39.40;;;;;;5060564;28;20969;-70
2022/11/17 05:00:55;;;;;;;7.70;4.63;;;8.20;39.50;;;;;;5058155;28;20483;-70
2022/11/17 05:03:22;;;;;;;8.47;4.50;;;8.10;39.70;;;;;;5058295;28;20458;-71
2022/11/17 05:05:51;;;;;;;6.60;3.93;;;8.20;39.90;;;;;;5058896;28;20736;-69
2022/11/17 05:08:17;;;;;;;9.43;5.57;;;8.20;39.80;;;;;;5070179;28;20548;-72
2022/11/17 05:13:29;;;;;;;8.53;4.20;;;8.20;40.00;;;;;;5060105;28;20515;-71
2022/11/17 05:18:43;;;;;;;7.90;4.67;;;8.20;40.40;;;;;;5062134;28;20815;-70
2022/11/17 05:21:11;;;;;;;7.63;4.77;;;8.20;40.40;;;;;;5058382;28;20457;-71
2022/11/17 05:23:55;;;;;;;8.13;4.10;;;8.20;40.80;;;;;;5056471;28;20476;-71
2022/11/17 05:26:24;;;;;;;7.47;4.33;;;8.20;40.80;;;;;;5055612;28;20453;-71
2022/11/17 05:28:51;;;;;;;7.10;4.37;;;8.20;40.70;;;;;;5058655;28;20490;-71
2022/11/17 05:31:18;;;;;;;9.70;3.90;;;8.20;40.70;;;;;;5054890;28;20478;-71
2022/11/17 05:33:44;;;;;;;8.10;4.57;;;8.20;40.70;;;;;;5056856;28;20460;-69
2022/11/17 05:36:13;;;;;;;7.40;3.83;;;8.30;40.60;;;;;;5063343;28;20481;-67
2022/11/17 05:38:40;;;;;;;9.00;4.80;;;8.30;40.60;;;;;;5057140;28;20481;-67
2022/11/17 05:41:07;;;;;;;6.80;4.00;;;8.30;40.50;;;;;;5065275;28;21137;-71
2022/11/17 05:43:34;;;;;;;8.47;3.67;;;8.30;40.60;;;;;;5059488;28;20453;-69
2022/11/17 05:46:01;;;;;;;7.20;4.20;;;8.30;40.60;;;;;;5052508;28;20540;-67
2022/11/17 05:48:28;;;;;;;8.17;4.30;;;8.40;40.40;;;;;;5057173;28;20908;-69
2022/11/17 05:50:55;;;;;;;7.63;3.93;;;8.40;40.30;;;;;;5058243;28;20491;-66
2022/11/17 05:53:25;;;;;;;7.43;4.40;;;8.40;40.30;;;;;;5057442;28;20461;-66
2022/11/17 05:56:03;;;;;;;6.70;4.07;;;8.40;40.30;;;;;;5064340;28;20465;-65
2022/11/17 05:58:32;;;;;;;12.83;4.53;;;8.40;40.10;;;;;;5057753;28;20991;-67
2022/11/17 06:01:00;;;;;;;9.37;5.00;;;8.50;40.20;;;;;;5058939;28;20499;-68
2022/11/17 06:03:33;;;;;;;11.60;4.67;;;8.50;40.10;;;;;;5059785;28;20465;-69
2022/11/17 06:06:00;;;;;;;7.73;4.70;;;8.50;40.10;;;;;;5059196;28;20457;-66
2022/11/17 06:08:30;;;;;;;9.90;4.70;;;8.60;40.00;;;;;;5063316;28;20457;-67
2022/11/17 06:10:57;;;;;;;9.03;4.80;;;8.60;40.00;;;;;;5063989;28;20477;-66
2022/11/17 06:13:27;;;;;;;8.17;4.33;;;8.60;40.00;;;;;;5070633;28;20461;-67
2022/11/17 06:15:55;;;;;;;10.83;4.40;;;8.70;40.00;;;;;;5059551;28;20461;-66
2022/11/17 06:18:25;;;;;;;7.83;4.57;;;8.70;40.00;;;;;;5060560;28;20972;-68
2022/11/17 06:20:53;;;;;;;10.47;5.27;;;8.70;40.10;;;;;;5063382;28;21030;-68
2022/11/17 06:23:22;;;;;;;7.10;5.03;;;8.70;39.90;;;;;;5063287;28;20457;-68
2022/11/17 06:25:50;;;;;;;8.17;4.63;;;8.70;40.00;;;;;;5066121;28;20459;-68
2022/11/17 06:28:20;;;;;;;8.30;4.73;;;8.70;40.10;;;;;;5061992;28;20464;-69
2022/11/17 06:30:47;;;;;;;8.90;5.00;;;8.70;40.10;;;;;;5061821;28;20484;-68
2022/11/17 06:33:18;;;;;;;8.40;5.10;;;8.80;40.10;;;;;;5065725;28;20476;-70
2022/11/17 06:35:46;;;;;;;8.93;5.07;;;8.70;40.10;;;;;;5064558;28;20469;-67
2022/11/17 06:38:13;;;;;;;8.63;5.00;;;8.80;39.90;;;;;;5059651;28;20468;-66
2022/11/17 06:40:39;;;;;;;9.00;5.23;;;8.80;40.00;;;;;;5062559;28;22017;-65
2022/11/17 06:43:08;;;;;;;9.30;6.70;;;8.90;40.10;;;;;;5065111;28;20738;-67
2022/11/17 06:45:36;;;;;;;9.77;6.10;;;8.80;40.00;;;;;;5062589;28;20465;-66
2022/11/17 06:48:03;;;;;;;8.90;4.93;;;8.80;40.20;;;;;;5066413;28;20457;-66
2022/11/17 06:50:30;;;;;;;8.40;5.07;;;8.80;40.50;;;;;;5062442;28;20492;-67
2022/11/17 06:52:58;;;;;;;7.43;4.97;;;8.70;40.60;;;;;;5064274;28;20831;-66
2022/11/17 06:55:25;;;;;;;9.70;5.40;;;8.70;40.50;;;;;;5063480;28;20822;-67
2022/11/17 06:57:52;;;;;;;9.27;5.40;;;8.70;40.60;;;;;;5066912;28;20457;-65
2022/11/17 07:00:21;;;;;;;8.50;4.83;;;8.70;40.60;;;;;;5060796;28;20469;-67
2022/11/17 07:02:47;;;;;;;8.60;5.03;;;8.70;40.80;;;;;;5065145;28;20463;-67
2022/11/17 07:05:14;;;;;;;7.50;4.20;;;8.80;40.60;;;;;;5063538;28;20457;-66
2022/11/17 07:07:41;;;;;;;7.63;4.07;;;8.80;40.40;;;;;;5056028;28;21119;-66
2022/11/17 07:10:09;;;;;;;7.70;4.50;;;8.80;40.60;;;;;;5063352;28;20478;-66
2022/11/17 07:12:36;;;;;;;7.10;4.30;;;8.90;40.50;;;;;;5064774;28;20965;-65
2022/11/17 07:15:02;;;;;;;7.10;4.70;;;8.90;40.50;;;;;;5058539;28;20469;-65
2022/11/17 07:17:31;;;;;;;6.40;3.63;;;8.90;40.60;;;;;;5066225;28;20468;-67
2022/11/17 07:19:58;;;;;;;9.03;4.17;;;8.90;40.50;;;;;;5065699;28;20583;-67
2022/11/17 07:22:25;;;;;;;7.27;3.27;;;9.00;40.60;;;;;;5064009;28;20977;-67
2022/11/17 07:24:52;;;;;;;7.77;3.80;;;9.00;40.60;;;;;;5062592;28;20472;-67
2022/11/17 07:27:19;;;;;;;7.00;4.00;;;9.00;40.60;;;;;;5058522;28;20457;-70
2022/11/17 07:29:45;;;;;;;6.33;3.80;;;9.00;40.60;;;;;;5054560;28;20488;-69
2022/11/17 07:32:13;;;;;;;6.97;4.40;;;9.00;40.50;;;;;;5060195;28;20473;-69
2022/11/17 07:34:42;;;;;;;6.90;3.47;;;9.00;41.10;;;;;;5062755;28;20465;-68
2022/11/17 07:37:08;;;;;;;8.03;3.70;;;9.10;40.80;;;;;;5063049;28;20457;-68
2022/11/17 07:39:35;;;;;;;6.67;4.00;;;9.00;40.60;;;;;;5061276;28;20468;-65
2022/11/17 07:42:02;;;;;;;7.93;3.73;;;9.00;40.80;;;;;;5062821;28;20453;-65
2022/11/17 07:44:29;;;;;;;6.70;3.97;;;9.10;40.80;;;;;;5061406;28;20506;-73
2022/11/17 07:46:56;;;;;;;6.07;3.03;;;9.10;40.70;;;;;;5065126;28;20457;-72
2022/11/17 07:49:23;;;;;;;5.60;3.23;;;9.10;40.90;;;;;;5055803;28;20489;-70
2022/11/17 07:51:51;;;;;;;6.93;3.67;;;9.20;40.60;;;;;;5064913;28;20958;-68
2022/11/17 07:54:17;;;;;;;6.20;3.20;;;9.30;40.30;;;;;;5058460;28;20464;-73
2022/11/17 07:56:44;;;;;;;5.53;3.10;;;9.40;39.90;;;;;;5060277;28;20472;-69
2022/11/17 07:59:11;;;;;;;7.33;3.60;;;9.40;39.50;;;;;;5061208;28;20481;-69
2022/11/17 08:01:38;;;;;;;6.30;3.37;;;9.40;39.90;;;;;;5065661;28;20477;-73
2022/11/17 08:04:05;;;;;;;5.90;3.20;;;9.40;39.80;;;;;;5065017;28;20456;-72
2022/11/17 08:06:32;;;;;;;8.43;3.67;;;9.50;39.70;;;;;;5055433;28;20456;-75
2022/11/17 08:09:00;;;;;;;7.00;3.70;;;9.50;39.80;;;;;;5056260;28;20485;-72
2022/11/17 08:11:27;;;;;;;6.17;3.37;;;9.60;40.30;;;;;;5063095;28;21122;-65
2022/11/17 08:13:54;;;;;;;7.13;2.60;;;10.10;43.40;;;;;;5057272;28;20902;-72
2022/11/17 08:16:21;;;;;;;6.67;2.33;;;10.90;43.30;;;;;;5062657;28;21202;-71
2022/11/17 08:18:48;;;;;;;6.20;3.10;;;11.70;41.00;;;;;;5061140;28;20454;-75
2022/11/17 08:21:15;;;;;;;5.30;2.30;;;12.30;35.70;;;;;;5060382;28;20979;-79
2022/11/17 08:23:42;;;;;;;5.57;2.10;;;12.40;32.50;;;;;;5061108;28;20473;-72
2022/11/17 08:26:11;;;;;;;5.03;2.30;;;12.30;31.80;;;;;;5056604;28;20583;-74
2022/11/17 08:28:38;;;;;;;6.10;2.57;;;12.10;31.80;;;;;;5061586;28;20476;-75
2022/11/17 08:31:07;;;;;;;10.70;3.67;;;12.00;31.90;;;;;;5056540;28;20492;-76
2022/11/17 08:33:35;;;;;;;4.77;2.03;;;11.90;32.10;;;;;;5059833;28;20463;-78
2022/11/17 08:36:03;;;;;;;4.90;2.43;;;11.80;32.20;;;;;;5059335;28;20469;-73
2022/11/17 08:38:30;;;;;;;6.63;2.60;;;11.60;32.70;;;;;;5057643;28;20462;-71
2022/11/17 08:40:58;;;;;;;5.23;2.50;;;11.50;33.60;;;;;;5060198;28;20456;-69
2022/11/17 08:43:26;;;;;;;5.30;1.83;;;11.50;33.50;;;;;;5059952;28;20472;-70
2022/11/17 08:45:53;;;;;;;7.50;2.43;;;11.40;33.90;;;;;;5062776;28;20457;-69
2022/11/17 08:48:19;;;;;;;5.50;2.43;;;11.30;34.30;;;;;;5064011;28;20855;-71
2022/11/17 08:50:46;;;;;;;5.83;2.33;;;11.20;34.60;;;;;;5062597;28;20493;-71
2022/11/17 08:53:14;;;;;;;5.13;2.13;;;11.10;35.10;;;;;;5063924;28;20961;-69
2022/11/17 08:55:41;;;;;;;5.60;1.90;;;11.10;35.50;;;;;;5052469;28;20465;-65
2022/11/17 08:58:08;;;;;;;5.67;2.03;;;11.00;35.90;;;;;;5058790;28;20466;-67
2022/11/17 09:00:36;;;;;;;6.37;2.37;;;11.00;36.20;;;;;;5056108;28;20469;-66
2022/11/17 09:03:06;;;;;;;4.97;2.00;;;11.00;36.40;;;;;;5062622;28;20457;-66
2022/11/17 09:05:34;;;;;;;5.23;2.50;;;11.10;36.40;;;;;;5062098;28;20465;-65
2022/11/17 09:08:01;;;;;;;5.13;1.70;;;11.20;36.40;;;;;;5060256;28;21098;-64
2022/11/17 09:10:27;;;;;;;5.60;1.97;;;11.30;36.20;;;;;;5054403;28;20487;-64
2022/11/17 09:12:55;;;;;;;5.17;2.30;;;11.40;35.60;;;;;;5058975;28;20457;-64
2022/11/17 09:15:22;;;;;;;7.20;2.10;;;11.50;35.40;;;;;;5056186;28;20519;-64
2022/11/17 09:17:50;;;;;;;4.70;2.00;;;11.40;35.60;;;;;;5059969;28;20453;-66
2022/11/17 09:20:19;;;;;;;5.23;1.90;;;11.40;35.90;;;;;;5055449;28;20497;-65
2022/11/17 09:22:46;;;;;;;7.33;2.83;;;11.40;36.10;;;;;;5056672;28;20454;-60
2022/11/17 09:25:13;;;;;;;5.97;2.50;;;11.40;36.60;;;;;;5057030;28;20465;-62
2022/11/17 09:27:40;;;;;;;5.10;2.30;;;11.40;36.10;;;;;;5054322;28;20872;-61
2022/11/17 09:30:08;;;;;;;5.37;2.57;;;11.40;36.20;;;;;;5055141;28;20499;-61
2022/11/17 09:32:35;;;;;;;6.30;2.87;;;11.40;36.20;;;;;;5059511;28;20562;-60
2022/11/17 09:35:05;;;;;;;7.77;3.00;;;11.40;36.30;;;;;;5055746;28;20803;-61
2022/11/17 09:37:32;;;;;;;6.90;2.60;;;11.40;36.50;;;;;;5056621;28;20545;-61
2022/11/17 09:40:00;;;;;;;6.27;2.70;;;11.40;36.70;;;;;;5064237;28;20487;-60
2022/11/17 09:42:28;;;;;;;6.50;4.27;;;11.40;36.80;;;;;;5065272;28;21032;-60
2022/11/17 09:45:00;;;;;;;8.40;5.10;;;11.40;37.10;;;;;;5065917;28;20461;-61
2022/11/17 09:47:37;;;;;;;8.53;5.27;;;11.40;36.90;;;;;;5063945;28;20485;-61
2022/11/17 09:50:16;;;;;;;6.70;4.50;;;11.30;37.10;;;;;;5068856;28;20484;-61
2022/11/17 09:52:54;;;;;;;7.67;5.70;;;11.20;37.20;;;;;;5064427;28;20464;-62
2022/11/17 09:55:26;;;;;;;7.67;5.77;;;11.20;37.30;;;;;;5066220;28;20884;-62
2022/11/17 09:58:03;;;;;;;9.10;6.43;;;11.20;37.40;;;;;;5065095;28;20464;-71
2022/11/17 10:00:33;;;;;;;9.47;5.77;;;11.30;37.60;;;;;;5065208;28;20845;-62
2022/11/17 10:03:01;;;;;;;8.60;5.63;;;11.30;37.60;;;;;;5063737;28;20496;-63
2022/11/17 10:05:31;;;;;;;11.40;6.10;;;11.40;37.60;;;;;;5067690;28;22485;-63
2022/11/17 10:08:02;;;;;;;7.90;4.30;;;11.40;37.60;;;;;;5063061;28;20496;-61
2022/11/17 10:10:35;;;;;;;8.30;4.10;;;11.50;37.80;;;;;;5064587;28;20476;-62
2022/11/17 10:13:05;;;;;;;9.17;5.10;;;11.60;38.30;;;;;;5064055;28;20457;-61
2022/11/17 10:15:41;;;;;;;7.60;4.10;;;12.10;40.40;;;;;;5065337;28;20825;-61
2022/11/17 10:18:13;;;;;;;9.87;4.57;;;13.10;39.80;;;;;;5064644;28;20457;-61
2022/11/17 10:20:42;;;;;;;7.40;3.33;;;13.90;36.90;;;;;;5063096;28;20543;-61
2022/11/17 10:23:14;;;;;;;8.40;3.50;;;14.10;34.00;;;;;;5057526;28;20464;-62
2022/11/17 10:25:42;;;;;;;6.40;3.00;;;14.10;32.60;;;;;;5066616;28;21047;-61
2022/11/17 10:28:22;;;;;;;8.67;3.80;;;13.90;32.10;;;;;;5064918;28;20462;-63
2022/11/17 10:30:54;;;;;;;5.47;2.60;;;13.80;31.00;;;;;;5063260;28;20488;-62
2022/11/17 10:33:33;;;;;;;6.23;3.13;;;13.70;30.80;;;;;;5063979;28;20850;-62
2022/11/17 10:36:02;;;;;;;8.30;2.70;;;13.50;31.40;;;;;;5063164;28;20482;-61
2022/11/17 10:38:32;;;;;;;6.50;2.20;;;13.40;31.00;;;;;;5059187;28;20453;-63
2022/11/17 10:41:01;;;;;;;6.07;2.57;;;13.30;31.80;;;;;;5063097;28;20937;-64
2022/11/17 10:43:31;;;;;;;5.60;1.90;;;13.10;32.30;;;;;;5063563;28;20457;-62
2022/11/17 10:46:01;;;;;;;4.70;1.77;;;13.10;32.40;;;;;;5062831;28;20465;-62
2022/11/17 10:48:31;;;;;;;5.77;1.57;;;13.10;32.00;;;;;;5059068;28;20461;-62
2022/11/17 10:50:59;;;;;;;6.07;1.40;;;12.90;32.00;;;;;;5059764;28;20478;-61
2022/11/17 10:53:32;;;;;;;4.27;1.70;;;12.80;32.30;;;;;;5059107;28;20461;-61
2022/11/17 10:56:03;;;;;;;4.70;1.70;;;12.80;32.30;;;;;;5055609;28;20972;-61
2022/11/17 10:58:32;;;;;;;5.30;1.80;;;12.70;32.60;;;;;;5064713;28;20464;-60
2022/11/17 11:01:01;;;;;;;7.53;2.13;;;12.60;33.10;;;;;;5063382;28;20473;-62
2022/11/17 11:03:30;;;;;;;5.13;1.97;;;12.50;33.60;;;;;;5062303;28;20457;-62
2022/11/17 11:06:02;;;;;;;4.30;1.40;;;12.90;34.80;;;;;;5066959;28;20611;-62
2022/11/17 11:08:44;;;;;;;4.90;1.50;;;13.40;30.60;;;;;;5055557;28;20469;-61
2022/11/17 11:11:19;;;;;;;4.90;1.30;;;13.60;30.10;;;;;;5061124;28;20472;-61
2022/11/17 11:13:52;;;;;;;5.03;1.40;;;13.80;29.70;;;;;;5064179;28;20463;-60
2022/11/17 11:16:19;;;;;;;4.77;1.10;;;14.60;28.50;;;;;;5065100;28;20538;-61
2022/11/17 11:18:48;;;;;;;4.30;1.83;;;15.60;25.60;;;;;;5056942;28;20461;-61
2022/11/17 11:21:24;;;;;;;3.90;1.20;;;16.60;22.70;;;;;;5064214;28;20457;-61
2022/11/17 11:23:58;;;;;;;4.43;1.33;;;17.30;20.00;;;;;;5058361;28;20481;-61
2022/11/17 11:26:44;;;;;;;3.90;1.07;;;18.00;18.70;;;;;;5058880;28;20461;-61
2022/11/17 11:29:22;;;;;;;5.63;1.37;;;17.90;17.30;;;;;;5058004;28;20481;-63
2022/11/17 11:32:00;;;;;;;4.67;1.13;;;17.90;17.90;;;;;;5058781;28;20500;-64
2022/11/17 11:34:50;;;;;;;4.20;1.10;;;18.50;16.90;;;;;;5063081;28;20463;-61
2022/11/17 11:37:17;;;;;;;3.60;0.80;;;19.80;15.00;;;;;;5058426;28;21013;-63
2022/11/17 11:39:54;;;;;;;3.67;0.97;;;20.80;12.60;;;;;;5064260;28;20479;-62
2022/11/17 11:42:45;;;;;;;3.57;0.97;;;21.40;11.00;;;;;;5059852;28;20553;-63
2022/11/17 11:45:21;;;;;;;3.53;0.70;;;22.00;10.60;;;;;;5060816;28;20465;-63
2022/11/17 11:48:14;;;;;;;3.50;0.90;;;22.40;8.90;;;;;;5056840;28;20448;-64
2022/11/17 11:50:50;;;;;;;5.40;0.90;;;22.60;7.80;;;;;;5052821;28;20497;-63
2022/11/17 11:53:25;;;;;;;4.23;0.90;;;22.30;6.40;;;;;;5062063;28;20485;-63
2022/11/17 11:56:04;;;;;;;3.50;0.80;;;22.20;7.00;;;;;;5059035;28;20469;-63
2022/11/17 11:58:31;;;;;;;4.37;0.90;;;22.10;7.80;;;;;;5058096;28;20457;-61
2022/11/17 12:01:04;;;;;;;4.73;0.60;;;21.60;8.10;;;;;;5057543;28;20469;-63
2022/11/17 12:03:35;;;;;;;4.80;1.00;;;21.70;8.30;;;;;;5057221;28;20468;-61
2022/11/17 12:09:06;;;;;;;3.50;0.80;;;21.50;7.70;;;;;;5049907;28;20473;-62
2022/11/17 12:14:19;;;;;;;3.93;0.60;;;21.10;7.00;;;;;;5061838;28;20695;-62
2022/11/17 12:16:47;;;;;;;6.37;0.80;;;21.10;7.70;;;;;;5056993;28;20483;-60
2022/11/17 12:19:51;;;;;;;7.27;0.90;;;21.00;7.50;;;;;;5058032;28;20960;-61
2022/11/17 12:22:56;;;;;;;3.90;0.63;;;21.10;7.80;;;;;;5050148;28;20457;-62
2022/11/17 12:25:29;;;;;;;5.07;0.80;;;21.10;7.40;;;;;;5039730;28;20475;-60
2022/11/17 12:27:57;;;;;;;4.30;0.80;;;20.90;7.20;;;;;;5061692;28;20497;-61
2022/11/17 12:30:53;;;;;;;3.70;0.60;;;20.70;7.10;;;;;;5055807;28;20525;-61
2022/11/17 12:33:20;;;;;;;3.90;0.80;;;20.40;7.80;;;;;;5062829;28;20527;-62
2022/11/17 12:36:25;;;;;;;4.70;0.90;;;20.30;8.50;;;;;;5060283;28;20465;-62
2022/11/17 12:38:53;;;;;;;7.13;1.10;;;20.30;8.30;;;;;;5054512;28;20485;-62
2022/11/17 12:41:58;;;;;;;5.50;1.47;;;20.00;8.00;;;;;;5061994;28;20457;-62
2022/11/17 12:44:50;;;;;;;4.80;1.00;;;19.80;9.20;;;;;;5055167;28;20465;-64
2022/11/17 12:47:19;;;;;;;5.33;0.87;;;19.60;9.00;;;;;;5057057;28;20547;-62
2022/11/17 12:49:55;;;;;;;7.73;1.30;;;19.30;9.20;;;;;;5056841;28;20474;-62
2022/11/17 12:52:31;;;;;;;6.97;1.23;;;19.00;10.10;;;;;;5059559;28;20476;-62
2022/11/17 12:55:05;;;;;;;6.50;1.13;;;18.80;10.00;;;;;;5055231;28;20460;-63
2022/11/17 12:57:33;;;;;;;4.30;1.27;;;18.50;11.00;;;;;;5058905;28;20452;-63
2022/11/17 13:00:14;;;;;;;5.30;0.90;;;18.40;11.40;;;;;;5055477;28;20488;-62
2022/11/17 13:02:57;;;;;;;9.40;1.60;;;18.10;10.60;;;;;;5049698;28;20961;-62
2022/11/17 13:05:26;;;;;;;6.83;1.33;;;17.80;11.30;;;;;;5061142;28;20468;-62
2022/11/17 13:08:11;;;;;;;9.70;1.57;;;17.60;12.80;;;;;;5060555;28;20776;-62
2022/11/17 13:10:38;;;;;;;6.67;1.17;;;17.30;12.60;;;;;;5062187;28;20487;-62
2022/11/17 13:13:12;;;;;;;10.63;2.07;;;17.00;13.20;;;;;;5053287;28;20467;-62
2022/11/17 13:15:42;;;;;;;7.23;1.13;;;16.80;13.00;;;;;;5055804;28;20457;-62
2022/11/17 13:18:11;;;;;;;7.67;1.10;;;16.60;13.50;;;;;;5060018;28;20967;-62
2022/11/17 13:20:39;;;;;;;8.90;1.30;;;16.30;13.60;;;;;;5056404;28;20566;-62
2022/11/17 13:23:13;;;;;;;5.60;1.13;;;16.10;14.60;;;;;;5059747;28;20453;-61
2022/11/17 13:25:40;;;;;;;5.80;1.40;;;16.00;15.00;;;;;;5058559;28;20515;-61
2022/11/17 13:28:26;;;;;;;10.97;2.27;;;15.90;15.20;;;;;;5053187;28;20465;-61
2022/11/17 13:30:54;;;;;;;6.10;1.37;;;15.70;15.60;;;;;;5056026;28;20498;-62
2022/11/17 13:33:23;;;;;;;5.97;1.40;;;15.60;15.00;;;;;;5053597;28;20472;-62
2022/11/17 13:36:05;;;;;;;7.73;1.53;;;15.40;15.80;;;;;;5056715;28;20461;-62
2022/11/17 13:38:32;;;;;;;9.07;1.60;;;15.30;16.90;;;;;;5055894;28;20480;-63
2022/11/17 13:40:59;;;;;;;11.23;1.50;;;15.20;16.10;;;;;;5059390;28;20473;-61
2022/11/17 13:43:28;;;;;;;7.77;1.60;;;15.10;16.70;;;;;;5056640;28;20469;-63
2022/11/17 13:45:56;;;;;;;8.33;1.40;;;15.00;17.00;;;;;;5051715;28;20453;-62
2022/11/17 13:48:34;;;;;;;6.50;1.73;;;14.90;17.60;;;;;;5059487;28;20465;-61